sensor_id;sensor_type;location;lat;lon;timestamp;P1;durP1;ratioP1;P2;durP2;ratioP2
40048;SDS011;54524;55.740;37.544;2023-02-28T00:01:04;0;;;0;;
40048;SDS011;54524;55.740;37.544;2023-02-28T00:02:04;3.8;;;3.4;;
40048;SDS011;54524;55.740;37.544;2023-02-28T00:03:05;3.7;;;3.3;;
40048;SDS011;54524;55.740;37.544;2023-02-28T00:04:05;4.5;;;3.6;;
40048;SDS011;54524;55.740;37.544;2023-02-28T00:05:06;4.5;;;3.5;;
40048;SDS011;54524;55.740;37.544;2023-02-28T00:06:07;4.5;;;3.5;;
40048;SDS011;54524;55.740;37.544;2023-02-28T00:07:10;4.5;;;3.6;;
40048;SDS011;54524;55.740;37.544;2023-02-28T00:08:10;4.4;;;3.6;;
40048;SDS011;54524;55.740;37.544;2023-02-28T00:09:11;4.4;;;3.6;;
40048;SDS011;54524;55.740;37.544;2023-02-28T00:11:03;4.6;;;3.5;;
40048;SDS011;54524;55.740;37.544;2023-02-28T00:12:05;4.6;;;3.6;;
40048;SDS011;54524;55.740;37.544;2023-02-28T00:13:10;4.6;;;3.6;;
40048;SDS011;54524;55.740;37.544;2023-02-28T00:14:11;4;;;3.6;;
40048;SDS011;54524;55.740;37.544;2023-02-28T00:15:11;4.1;;;3.7;;
40048;SDS011;54524;55.740;37.544;2023-02-28T00:16:13;4;;;3.6;;
40048;SDS011;54524;55.740;37.544;2023-02-28T00:17:15;4.7;;;3.9;;
40048;SDS011;54524;55.740;37.544;2023-02-28T00:18:18;4.8;;;3.9;;
40048;SDS011;54524;55.740;37.544;2023-02-28T00:19:18;4.6;;;3.8;;
40048;SDS011;54524;55.740;37.544;2023-02-28T00:21:02;4.1;;;3.6;;
40048;SDS011;54524;55.740;37.544;2023-02-28T00:22:03;4.1;;;3.6;;
40048;SDS011;54524;55.740;37.544;2023-02-28T00:23:03;4.2;;;3.7;;
40048;SDS011;54524;55.740;37.544;2023-02-28T00:24:04;4.5;;;3.7;;
40048;SDS011;54524;55.740;37.544;2023-02-28T00:25:05;4.5;;;3.8;;
40048;SDS011;54524;55.740;37.544;2023-02-28T00:26:07;4.9;;;3.9;;
40048;SDS011;54524;55.740;37.544;2023-02-28T00:27:08;4.9;;;4;;
40048;SDS011;54524;55.740;37.544;2023-02-28T00:28:08;4.8;;;4;;
40048;SDS011;54524;55.740;37.544;2023-02-28T00:29:09;3.9;;;3.5;;
40048;SDS011;54524;55.740;37.544;2023-02-28T00:31:03;3.9;;;3.5;;
40048;SDS011;54524;55.740;37.544;2023-02-28T00:32:04;4.4;;;3.7;;
40048;SDS011;54524;55.740;37.544;2023-02-28T00:33:05;4.3;;;3.7;;
40048;SDS011;54524;55.740;37.544;2023-02-28T00:34:05;4.3;;;3.7;;
40048;SDS011;54524;55.740;37.544;2023-02-28T00:35:07;4.2;;;3.8;;
40048;SDS011;54524;55.740;37.544;2023-02-28T00:36:08;4.1;;;3.7;;
40048;SDS011;54524;55.740;37.544;2023-02-28T00:37:09;4.1;;;3.7;;
40048;SDS011;54524;55.740;37.544;2023-02-28T00:38:12;5.6;;;4;;
40048;SDS011;54524;55.740;37.544;2023-02-28T00:39:12;5.7;;;4;;
40048;SDS011;54524;55.740;37.544;2023-02-28T00:41:02;4.6;;;3.7;;
40048;SDS011;54524;55.740;37.544;2023-02-28T00:42:05;4.6;;;3.7;;
40048;SDS011;54524;55.740;37.544;2023-02-28T00:43:06;4.6;;;3.7;;
40048;SDS011;54524;55.740;37.544;2023-02-28T00:44:06;4.3;;;3.9;;
40048;SDS011;54524;55.740;37.544;2023-02-28T00:45:07;4.3;;;3.9;;
40048;SDS011;54524;55.740;37.544;2023-02-28T00:46:08;4.4;;;3.9;;
40048;SDS011;54524;55.740;37.544;2023-02-28T00:47:09;4.4;;;3.9;;
40048;SDS011;54524;55.740;37.544;2023-02-28T00:48:10;4.3;;;3.9;;
40048;SDS011;54524;55.740;37.544;2023-02-28T00:49:10;4.7;;;3.8;;
40048;SDS011;54524;55.740;37.544;2023-02-28T00:51:03;4.1;;;3.6;;
40048;SDS011;54524;55.740;37.544;2023-02-28T00:52:03;4.1;;;3.6;;
40048;SDS011;54524;55.740;37.544;2023-02-28T00:53:04;4.3;;;3.6;;
40048;SDS011;54524;55.740;37.544;2023-02-28T00:54:04;3.9;;;3.5;;
40048;SDS011;54524;55.740;37.544;2023-02-28T00:55:05;3.9;;;3.5;;
40048;SDS011;54524;55.740;37.544;2023-02-28T00:56:06;3.9;;;3.5;;
40048;SDS011;54524;55.740;37.544;2023-02-28T00:57:07;3.9;;;3.3;;
40048;SDS011;54524;55.740;37.544;2023-02-28T00:58:08;4;;;3.3;;
40048;SDS011;54524;55.740;37.544;2023-02-28T00:59:08;3.9;;;3.3;;
40048;SDS011;54524;55.740;37.544;2023-02-28T01:01:03;6.30;;;1.20;;
40048;SDS011;54524;55.740;37.544;2023-02-28T01:02:04;3.7;;;3.4;;
40048;SDS011;54524;55.740;37.544;2023-02-28T01:03:04;3.9;;;3.4;;
40048;SDS011;54524;55.740;37.544;2023-02-28T01:04:05;4;;;3.5;;
40048;SDS011;54524;55.740;37.544;2023-02-28T01:05:06;4;;;3.5;;
40048;SDS011;54524;55.740;37.544;2023-02-28T01:06:06;4.4;;;3.6;;
40048;SDS011;54524;55.740;37.544;2023-02-28T01:07:08;4.3;;;3.6;;
40048;SDS011;54524;55.740;37.544;2023-02-28T01:08:09;4.4;;;3.5;;
40048;SDS011;54524;55.740;37.544;2023-02-28T01:09:10;4.4;;;3.6;;
40048;SDS011;54524;55.740;37.544;2023-02-28T01:11:07;4.4;;;3.5;;
40048;SDS011;54524;55.740;37.544;2023-02-28T01:12:08;3.9;;;3.5;;
40048;SDS011;54524;55.740;37.544;2023-02-28T01:13:09;4;;;3.6;;
40048;SDS011;54524;55.740;37.544;2023-02-28T01:14:11;3.9;;;3.5;;
40048;SDS011;54524;55.740;37.544;2023-02-28T01:15:12;3.9;;;3.5;;
40048;SDS011;54524;55.740;37.544;2023-02-28T01:16:13;5.3;;;3.6;;
40048;SDS011;54524;55.740;37.544;2023-02-28T01:17:14;5.3;;;3.6;;
40048;SDS011;54524;55.740;37.544;2023-02-28T01:18:14;4.4;;;3.2;;
40048;SDS011;54524;55.740;37.544;2023-02-28T01:19:15;4.4;;;3.1;;
40048;SDS011;54524;55.740;37.544;2023-02-28T01:21:03;4.4;;;3.2;;
40048;SDS011;54524;55.740;37.544;2023-02-28T01:22:04;4.1;;;3.6;;
40048;SDS011;54524;55.740;37.544;2023-02-28T01:23:05;3.9;;;3.5;;
40048;SDS011;54524;55.740;37.544;2023-02-28T01:24:06;3.9;;;3.5;;
40048;SDS011;54524;55.740;37.544;2023-02-28T01:25:07;3.9;;;3.5;;
40048;SDS011;54524;55.740;37.544;2023-02-28T01:26:09;3.8;;;3.4;;
40048;SDS011;54524;55.740;37.544;2023-02-28T01:27:10;3.7;;;3.3;;
40048;SDS011;54524;55.740;37.544;2023-02-28T01:28:11;3.7;;;3.3;;
40048;SDS011;54524;55.740;37.544;2023-02-28T01:29:11;3.8;;;3.4;;
40048;SDS011;54524;55.740;37.544;2023-02-28T01:31:03;3.8;;;3.4;;
40048;SDS011;54524;55.740;37.544;2023-02-28T01:32:04;3.8;;;3.4;;
40048;SDS011;54524;55.740;37.544;2023-02-28T01:33:05;3.7;;;3.4;;
40048;SDS011;54524;55.740;37.544;2023-02-28T01:34:05;3.7;;;3.4;;
40048;SDS011;54524;55.740;37.544;2023-02-28T01:35:06;4.9;;;3.5;;
40048;SDS011;54524;55.740;37.544;2023-02-28T01:36:09;4.9;;;3.5;;
40048;SDS011;54524;55.740;37.544;2023-02-28T01:37:10;3.9;;;3.3;;
40048;SDS011;54524;55.740;37.544;2023-02-28T01:38:11;4;;;3.3;;
40048;SDS011;54524;55.740;37.544;2023-02-28T01:39:11;4.1;;;3.3;;
40048;SDS011;54524;55.740;37.544;2023-02-28T01:41:04;4;;;3.4;;
40048;SDS011;54524;55.740;37.544;2023-02-28T01:42:04;4;;;3.4;;
40048;SDS011;54524;55.740;37.544;2023-02-28T01:43:07;3.7;;;3.3;;
40048;SDS011;54524;55.740;37.544;2023-02-28T01:45:22;3.6;;;3.3;;
40048;SDS011;54524;55.740;37.544;2023-02-28T01:46:24;3.9;;;3.5;;
40048;SDS011;54524;55.740;37.544;2023-02-28T01:47:26;3.9;;;3.5;;
40048;SDS011;54524;55.740;37.544;2023-02-28T01:48:29;3.9;;;3.5;;
40048;SDS011;54524;55.740;37.544;2023-02-28T01:49:31;4.7;;;3.4;;
40048;SDS011;54524;55.740;37.544;2023-02-28T01:51:03;4.6;;;3.4;;
40048;SDS011;54524;55.740;37.544;2023-02-28T01:52:05;3.6;;;3;;
40048;SDS011;54524;55.740;37.544;2023-02-28T01:53:08;3.7;;;3.1;;
40048;SDS011;54524;55.740;37.544;2023-02-28T01:54:12;3.8;;;3.1;;
40048;SDS011;54524;55.740;37.544;2023-02-28T01:55:13;3.5;;;3.2;;
40048;SDS011;54524;55.740;37.544;2023-02-28T01:56:16;3.4;;;3.1;;
40048;SDS011;54524;55.740;37.544;2023-02-28T01:57:22;3.4;;;3.1;;
40048;SDS011;54524;55.740;37.544;2023-02-28T01:58:23;3.4;;;3.1;;
40048;SDS011;54524;55.740;37.544;2023-02-28T01:59:24;3.4;;;3.1;;
40048;SDS011;54524;55.740;37.544;2023-02-28T02:01:03;3.4;;;3.1;;
40048;SDS011;54524;55.740;37.544;2023-02-28T02:02:04;3.9;;;3.3;;
40048;SDS011;54524;55.740;37.544;2023-02-28T02:03:06;3.8;;;3.3;;
40048;SDS011;54524;55.740;37.544;2023-02-28T02:04:08;3.9;;;3.3;;
40048;SDS011;54524;55.740;37.544;2023-02-28T02:05:10;3.6;;;3.3;;
40048;SDS011;54524;55.740;37.544;2023-02-28T02:06:11;3.5;;;3.2;;
40048;SDS011;54524;55.740;37.544;2023-02-28T02:07:12;3.5;;;3.2;;
40048;SDS011;54524;55.740;37.544;2023-02-28T02:08:13;3.4;;;3.1;;
40048;SDS011;54524;55.740;37.544;2023-02-28T02:09:15;3.5;;;3.2;;
40048;SDS011;54524;55.740;37.544;2023-02-28T02:11:03;6.30;;;1.20;;
40048;SDS011;54524;55.740;37.544;2023-02-28T02:12:07;4;;;3.2;;
40048;SDS011;54524;55.740;37.544;2023-02-28T02:13:14;4.1;;;3.2;;
40048;SDS011;54524;55.740;37.544;2023-02-28T02:14:31;4.1;;;3.2;;
40048;SDS011;54524;55.740;37.544;2023-02-28T02:15:35;3.7;;;3.2;;
40048;SDS011;54524;55.740;37.544;2023-02-28T02:16:42;3.7;;;3.2;;
40048;SDS011;54524;55.740;37.544;2023-02-28T02:17:45;4.2;;;3.6;;
40048;SDS011;54524;55.740;37.544;2023-02-28T02:18:50;4.1;;;3.6;;
40048;SDS011;54524;55.740;37.544;2023-02-28T02:19:59;4.4;;;3.7;;
40048;SDS011;54524;55.740;37.544;2023-02-28T02:21:08;6.30;;;1.20;;
40048;SDS011;54524;55.740;37.544;2023-02-28T02:22:12;4.1;;;3.5;;
40048;SDS011;54524;55.740;37.544;2023-02-28T02:23:26;5.1;;;3.7;;
40048;SDS011;54524;55.740;37.544;2023-02-28T02:24:34;5.1;;;3.8;;
40048;SDS011;54524;55.740;37.544;2023-02-28T02:25:42;6.1;;;3.8;;
40048;SDS011;54524;55.740;37.544;2023-02-28T02:26:52;5.8;;;4.2;;
40048;SDS011;54524;55.740;37.544;2023-02-28T02:27:59;5.8;;;4.2;;
40048;SDS011;54524;55.740;37.544;2023-02-28T02:29:08;6.8;;;4.5;;
40048;SDS011;54524;55.740;37.544;2023-02-28T02:31:05;6.9;;;4.5;;
40048;SDS011;54524;55.740;37.544;2023-02-28T02:32:14;6.9;;;5;;
40048;SDS011;54524;55.740;37.544;2023-02-28T02:33:22;6.9;;;5;;
40048;SDS011;54524;55.740;37.544;2023-02-28T02:34:34;6.6;;;4.8;;
40048;SDS011;54524;55.740;37.544;2023-02-28T02:35:39;6.6;;;4.8;;
40048;SDS011;54524;55.740;37.544;2023-02-28T02:36:42;7.3;;;5.3;;
40048;SDS011;54524;55.740;37.544;2023-02-28T02:37:46;7.2;;;5.2;;
40048;SDS011;54524;55.740;37.544;2023-02-28T02:38:49;8.5;;;5.2;;
40048;SDS011;54524;55.740;37.544;2023-02-28T02:39:52;8.5;;;5.2;;
40048;SDS011;54524;55.740;37.544;2023-02-28T02:41:04;6.30;;;1.20;;
40048;SDS011;54524;55.740;37.544;2023-02-28T02:42:10;8.3;;;5.2;;
40048;SDS011;54524;55.740;37.544;2023-02-28T02:43:13;8.3;;;5.2;;
40048;SDS011;54524;55.740;37.544;2023-02-28T02:44:18;8.3;;;5.2;;
40048;SDS011;54524;55.740;37.544;2023-02-28T02:45:22;8.3;;;5.2;;
40048;SDS011;54524;55.740;37.544;2023-02-28T02:46:26;8.3;;;5.2;;
40048;SDS011;54524;55.740;37.544;2023-02-28T02:47:30;8.3;;;5.2;;
40048;SDS011;54524;55.740;37.544;2023-02-28T02:48:31;8.3;;;5.2;;
40048;SDS011;54524;55.740;37.544;2023-02-28T02:49:34;8.3;;;5.2;;
40048;SDS011;54524;55.740;37.544;2023-02-28T02:51:04;6.30;;;1.20;;
40048;SDS011;54524;55.740;37.544;2023-02-28T02:52:06;6.30;;;1.20;;
40048;SDS011;54524;55.740;37.544;2023-02-28T02:53:07;6.30;;;1.20;;
40048;SDS011;54524;55.740;37.544;2023-02-28T02:54:11;6.4;;;4.7;;
40048;SDS011;54524;55.740;37.544;2023-02-28T02:55:16;6.2;;;4.7;;
40048;SDS011;54524;55.740;37.544;2023-02-28T02:56:18;6.2;;;4.6;;
40048;SDS011;54524;55.740;37.544;2023-02-28T02:57:21;7.7;;;4.8;;
40048;SDS011;54524;55.740;37.544;2023-02-28T02:58:24;7.4;;;4.7;;
40048;SDS011;54524;55.740;37.544;2023-02-28T02:59:27;7.5;;;4.8;;
40048;SDS011;54524;55.740;37.544;2023-02-28T03:01:03;7.6;;;5;;
40048;SDS011;54524;55.740;37.544;2023-02-28T03:02:06;7.6;;;5.1;;
40048;SDS011;54524;55.740;37.544;2023-02-28T03:03:07;7.6;;;5;;
40048;SDS011;54524;55.740;37.544;2023-02-28T03:04:09;7.2;;;5;;
40048;SDS011;54524;55.740;37.544;2023-02-28T03:05:12;7.2;;;5;;
40048;SDS011;54524;55.740;37.544;2023-02-28T03:06:14;5.7;;;4.8;;
40048;SDS011;54524;55.740;37.544;2023-02-28T03:07:15;5.7;;;4.8;;
40048;SDS011;54524;55.740;37.544;2023-02-28T03:08:16;5.5;;;4.8;;
40048;SDS011;54524;55.740;37.544;2023-02-28T03:09:16;6.4;;;5;;
40048;SDS011;54524;55.740;37.544;2023-02-28T03:11:04;6.4;;;5;;
40048;SDS011;54524;55.740;37.544;2023-02-28T03:12:06;6.4;;;5;;
40048;SDS011;54524;55.740;37.544;2023-02-28T03:13:12;6;;;5;;
40048;SDS011;54524;55.740;37.544;2023-02-28T03:14:20;5.9;;;5;;
40048;SDS011;54524;55.740;37.544;2023-02-28T03:15:26;0;;;0;;
40048;SDS011;54524;55.740;37.544;2023-02-28T03:16:30;0;;;0;;
40048;SDS011;54524;55.740;37.544;2023-02-28T03:17:37;7.8;;;5.2;;
40048;SDS011;54524;55.740;37.544;2023-02-28T03:18:41;6.1;;;5.4;;
40048;SDS011;54524;55.740;37.544;2023-02-28T03:19:45;6.1;;;5.3;;
40048;SDS011;54524;55.740;37.544;2023-02-28T03:21:04;6.1;;;5.3;;
40048;SDS011;54524;55.740;37.544;2023-02-28T03:22:11;7.1;;;5.1;;
40048;SDS011;54524;55.740;37.544;2023-02-28T03:23:15;7.3;;;5.1;;
40048;SDS011;54524;55.740;37.544;2023-02-28T03:24:18;7.2;;;5.1;;
40048;SDS011;54524;55.740;37.544;2023-02-28T03:25:21;5.2;;;4.7;;
40048;SDS011;54524;55.740;37.544;2023-02-28T03:26:23;5.3;;;4.8;;
40048;SDS011;54524;55.740;37.544;2023-02-28T03:27:27;5.3;;;4.8;;
40048;SDS011;54524;55.740;37.544;2023-02-28T03:28:31;6.9;;;4.9;;
40048;SDS011;54524;55.740;37.544;2023-02-28T03:29:33;7;;;4.9;;
40048;SDS011;54524;55.740;37.544;2023-02-28T03:31:06;5.9;;;4.6;;
40048;SDS011;54524;55.740;37.544;2023-02-28T03:32:12;5.6;;;4.6;;
40048;SDS011;54524;55.740;37.544;2023-02-28T03:33:15;5.1;;;4.5;;
40048;SDS011;54524;55.740;37.544;2023-02-28T03:34:17;5.3;;;4.3;;
40048;SDS011;54524;55.740;37.544;2023-02-28T03:35:20;5.3;;;4.2;;
40048;SDS011;54524;55.740;37.544;2023-02-28T03:36:22;5.4;;;4.3;;
40048;SDS011;54524;55.740;37.544;2023-02-28T03:37:25;5.7;;;4.3;;
40048;SDS011;54524;55.740;37.544;2023-02-28T03:38:28;6.1;;;4.2;;
40048;SDS011;54524;55.740;37.544;2023-02-28T03:39:30;6.1;;;4.3;;
40048;SDS011;54524;55.740;37.544;2023-02-28T03:41:04;4.3;;;3.9;;
40048;SDS011;54524;55.740;37.544;2023-02-28T03:42:07;4.6;;;3.9;;
40048;SDS011;54524;55.740;37.544;2023-02-28T03:43:09;5;;;4.2;;
40048;SDS011;54524;55.740;37.544;2023-02-28T03:44:11;4.9;;;4.2;;
40048;SDS011;54524;55.740;37.544;2023-02-28T03:45:16;4.9;;;4.1;;
40048;SDS011;54524;55.740;37.544;2023-02-28T03:46:18;6.1;;;3.7;;
40048;SDS011;54524;55.740;37.544;2023-02-28T03:47:22;5.7;;;3.6;;
40048;SDS011;54524;55.740;37.544;2023-02-28T03:48:27;5.8;;;3.6;;
40048;SDS011;54524;55.740;37.544;2023-02-28T03:49:30;4.3;;;3.9;;
40048;SDS011;54524;55.740;37.544;2023-02-28T03:51:03;6.30;;;1.20;;
40048;SDS011;54524;55.740;37.544;2023-02-28T03:52:06;4;;;3.6;;
40048;SDS011;54524;55.740;37.544;2023-02-28T03:53:08;4;;;3.6;;
40048;SDS011;54524;55.740;37.544;2023-02-28T03:54:12;4;;;3.6;;
40048;SDS011;54524;55.740;37.544;2023-02-28T03:55:13;4.1;;;3.6;;
40048;SDS011;54524;55.740;37.544;2023-02-28T03:56:15;4;;;3.6;;
40048;SDS011;54524;55.740;37.544;2023-02-28T03:57:18;4;;;3.6;;
40048;SDS011;54524;55.740;37.544;2023-02-28T03:58:26;4;;;3.6;;
40048;SDS011;54524;55.740;37.544;2023-02-28T03:59:29;4.7;;;4;;
40048;SDS011;54524;55.740;37.544;2023-02-28T04:01:03;4.7;;;4;;
40048;SDS011;54524;55.740;37.544;2023-02-28T04:02:08;4.5;;;3.4;;
40048;SDS011;54524;55.740;37.544;2023-02-28T04:03:08;4.5;;;3.4;;
40048;SDS011;54524;55.740;37.544;2023-02-28T04:04:09;4.7;;;3.5;;
40048;SDS011;54524;55.740;37.544;2023-02-28T04:05:10;4.4;;;3.7;;
40048;SDS011;54524;55.740;37.544;2023-02-28T04:06:13;4.3;;;3.7;;
40048;SDS011;54524;55.740;37.544;2023-02-28T04:07:16;4.3;;;3.5;;
40048;SDS011;54524;55.740;37.544;2023-02-28T04:08:17;4.3;;;3.5;;
40048;SDS011;54524;55.740;37.544;2023-02-28T04:09:17;4.3;;;3.4;;
40048;SDS011;54524;55.740;37.544;2023-02-28T04:11:04;3.7;;;3.3;;
40048;SDS011;54524;55.740;37.544;2023-02-28T04:12:07;3.7;;;3.3;;
40048;SDS011;54524;55.740;37.544;2023-02-28T04:13:07;3.7;;;3.3;;
40048;SDS011;54524;55.740;37.544;2023-02-28T04:14:08;3.7;;;3.3;;
40048;SDS011;54524;55.740;37.544;2023-02-28T04:15:09;4.7;;;3.3;;
40048;SDS011;54524;55.740;37.544;2023-02-28T04:16:11;4.8;;;3.3;;
40048;SDS011;54524;55.740;37.544;2023-02-28T04:17:12;4.8;;;3.3;;
40048;SDS011;54524;55.740;37.544;2023-02-28T04:18:13;4.1;;;3.6;;
40048;SDS011;54524;55.740;37.544;2023-02-28T04:19:13;4;;;3.5;;
40048;SDS011;54524;55.740;37.544;2023-02-28T04:21:03;6.30;;;1.20;;
40048;SDS011;54524;55.740;37.544;2023-02-28T04:22:04;4.2;;;3.4;;
40048;SDS011;54524;55.740;37.544;2023-02-28T04:23:04;4.5;;;3.7;;
40048;SDS011;54524;55.740;37.544;2023-02-28T04:24:05;4.7;;;3.7;;
40048;SDS011;54524;55.740;37.544;2023-02-28T04:25:07;4.8;;;3.7;;
40048;SDS011;54524;55.740;37.544;2023-02-28T04:26:07;4.4;;;3.4;;
40048;SDS011;54524;55.740;37.544;2023-02-28T04:27:08;4.6;;;3.5;;
40048;SDS011;54524;55.740;37.544;2023-02-28T04:28:09;4.6;;;3.5;;
40048;SDS011;54524;55.740;37.544;2023-02-28T04:29:10;4.2;;;3.4;;
40048;SDS011;54524;55.740;37.544;2023-02-28T04:31:03;4.2;;;3.4;;
40048;SDS011;54524;55.740;37.544;2023-02-28T04:32:04;4.2;;;3.5;;
40048;SDS011;54524;55.740;37.544;2023-02-28T04:33:05;4.2;;;3.5;;
40048;SDS011;54524;55.740;37.544;2023-02-28T04:34:05;4.3;;;3.5;;
40048;SDS011;54524;55.740;37.544;2023-02-28T04:35:06;5.4;;;3.5;;
40048;SDS011;54524;55.740;37.544;2023-02-28T04:36:07;5.5;;;3.5;;
40048;SDS011;54524;55.740;37.544;2023-02-28T04:37:09;5.5;;;3.5;;
40048;SDS011;54524;55.740;37.544;2023-02-28T04:38:09;4.5;;;3.5;;
40048;SDS011;54524;55.740;37.544;2023-02-28T04:39:10;4.4;;;3.5;;
40048;SDS011;54524;55.740;37.544;2023-02-28T04:41:02;4.4;;;3.4;;
40048;SDS011;54524;55.740;37.544;2023-02-28T04:42:03;5.3;;;3.5;;
40048;SDS011;54524;55.740;37.544;2023-02-28T04:43:04;5.3;;;3.5;;
40048;SDS011;54524;55.740;37.544;2023-02-28T04:44:04;5.5;;;3.6;;
40048;SDS011;54524;55.740;37.544;2023-02-28T04:45:10;5.9;;;3.5;;
40048;SDS011;54524;55.740;37.544;2023-02-28T04:46:11;5.9;;;3.4;;
40048;SDS011;54524;55.740;37.544;2023-02-28T04:47:12;6;;;3.5;;
40048;SDS011;54524;55.740;37.544;2023-02-28T04:48:13;6.3;;;3.5;;
40048;SDS011;54524;55.740;37.544;2023-02-28T04:49:14;6.2;;;3.5;;
40048;SDS011;54524;55.740;37.544;2023-02-28T04:51:04;4.7;;;3.3;;
40048;SDS011;54524;55.740;37.544;2023-02-28T04:52:05;4.6;;;3.3;;
40048;SDS011;54524;55.740;37.544;2023-02-28T04:53:07;4.6;;;3.3;;
40048;SDS011;54524;55.740;37.544;2023-02-28T04:54:08;4.3;;;3.5;;
40048;SDS011;54524;55.740;37.544;2023-02-28T04:55:09;4.3;;;3.5;;
40048;SDS011;54524;55.740;37.544;2023-02-28T04:56:10;4.3;;;3.5;;
40048;SDS011;54524;55.740;37.544;2023-02-28T04:57:12;4;;;3.4;;
40048;SDS011;54524;55.740;37.544;2023-02-28T04:58:13;4.1;;;3.4;;
40048;SDS011;54524;55.740;37.544;2023-02-28T04:59:14;4.1;;;3.4;;
40048;SDS011;54524;55.740;37.544;2023-02-28T05:01:04;4.2;;;3.4;;
40048;SDS011;54524;55.740;37.544;2023-02-28T05:02:12;4.2;;;3.4;;
40048;SDS011;54524;55.740;37.544;2023-02-28T05:03:13;3.5;;;3.1;;
40048;SDS011;54524;55.740;37.544;2023-02-28T05:04:13;3.5;;;3.1;;
40048;SDS011;54524;55.740;37.544;2023-02-28T05:05:14;3.4;;;3.1;;
40048;SDS011;54524;55.740;37.544;2023-02-28T05:06:18;5.5;;;3.3;;
40048;SDS011;54524;55.740;37.544;2023-02-28T05:07:21;5.4;;;3.2;;
40048;SDS011;54524;55.740;37.544;2023-02-28T05:08:21;5.5;;;3.3;;
40048;SDS011;54524;55.740;37.544;2023-02-28T05:09:22;5.1;;;3.3;;
40048;SDS011;54524;55.740;37.544;2023-02-28T05:11:02;5;;;3.2;;
40048;SDS011;54524;55.740;37.544;2023-02-28T05:12:04;5.1;;;3.3;;
40048;SDS011;54524;55.740;37.544;2023-02-28T05:13:04;5.2;;;3.3;;
40048;SDS011;54524;55.740;37.544;2023-02-28T05:14:06;5.2;;;3.3;;
40048;SDS011;54524;55.740;37.544;2023-02-28T05:15:08;4;;;3.1;;
40048;SDS011;54524;55.740;37.544;2023-02-28T05:16:08;4;;;3.2;;
40048;SDS011;54524;55.740;37.544;2023-02-28T05:17:10;4;;;3.2;;
40048;SDS011;54524;55.740;37.544;2023-02-28T05:18:10;4;;;3.2;;
40048;SDS011;54524;55.740;37.544;2023-02-28T05:19:11;4.9;;;3.4;;
40048;SDS011;54524;55.740;37.544;2023-02-28T05:21:03;5;;;3.4;;
40048;SDS011;54524;55.740;37.544;2023-02-28T05:22:04;4.7;;;3.3;;
40048;SDS011;54524;55.740;37.544;2023-02-28T05:23:04;4.7;;;3.3;;
40048;SDS011;54524;55.740;37.544;2023-02-28T05:24:06;4.6;;;3.3;;
40048;SDS011;54524;55.740;37.544;2023-02-28T05:25:08;4.9;;;3.4;;
40048;SDS011;54524;55.740;37.544;2023-02-28T05:26:11;4.9;;;3.5;;
40048;SDS011;54524;55.740;37.544;2023-02-28T05:27:12;5;;;3.5;;
40048;SDS011;54524;55.740;37.544;2023-02-28T05:28:13;4;;;3.3;;
40048;SDS011;54524;55.740;37.544;2023-02-28T05:29:14;4;;;3.3;;
40048;SDS011;54524;55.740;37.544;2023-02-28T05:31:03;4.2;;;3.4;;
40048;SDS011;54524;55.740;37.544;2023-02-28T05:32:03;4.3;;;3.5;;
40048;SDS011;54524;55.740;37.544;2023-02-28T05:33:04;4.3;;;3.5;;
40048;SDS011;54524;55.740;37.544;2023-02-28T05:34:05;4.4;;;3.2;;
40048;SDS011;54524;55.740;37.544;2023-02-28T05:35:05;4.4;;;3.2;;
40048;SDS011;54524;55.740;37.544;2023-02-28T05:36:06;4.4;;;3.2;;
40048;SDS011;54524;55.740;37.544;2023-02-28T05:37:10;6.3;;;3.4;;
40048;SDS011;54524;55.740;37.544;2023-02-28T05:38:11;6.2;;;3.3;;
40048;SDS011;54524;55.740;37.544;2023-02-28T05:39:11;6.3;;;3.4;;
40048;SDS011;54524;55.740;37.544;2023-02-28T05:41:05;5.4;;;4;;
40048;SDS011;54524;55.740;37.544;2023-02-28T05:42:05;5.4;;;4;;
40048;SDS011;54524;55.740;37.544;2023-02-28T05:43:08;5.8;;;3.8;;
40048;SDS011;54524;55.740;37.544;2023-02-28T05:44:10;6.1;;;3.9;;
40048;SDS011;54524;55.740;37.544;2023-02-28T05:45:10;6.1;;;3.9;;
40048;SDS011;54524;55.740;37.544;2023-02-28T05:46:11;5.8;;;3.9;;
40048;SDS011;54524;55.740;37.544;2023-02-28T05:47:13;7.3;;;4.2;;
40048;SDS011;54524;55.740;37.544;2023-02-28T05:48:15;6.8;;;4.1;;
40048;SDS011;54524;55.740;37.544;2023-02-28T05:49:17;6.9;;;4.2;;
40048;SDS011;54524;55.740;37.544;2023-02-28T05:51:04;5;;;4.2;;
40048;SDS011;54524;55.740;37.544;2023-02-28T05:52:05;5.2;;;4.2;;
40048;SDS011;54524;55.740;37.544;2023-02-28T05:53:05;5.6;;;4;;
40048;SDS011;54524;55.740;37.544;2023-02-28T05:54:06;5.6;;;4;;
40048;SDS011;54524;55.740;37.544;2023-02-28T05:55:07;5.6;;;4;;
40048;SDS011;54524;55.740;37.544;2023-02-28T05:56:08;5.5;;;4;;
40048;SDS011;54524;55.740;37.544;2023-02-28T05:57:09;5.5;;;4;;
40048;SDS011;54524;55.740;37.544;2023-02-28T05:58:10;5.4;;;4;;
40048;SDS011;54524;55.740;37.544;2023-02-28T05:59:11;6.5;;;3.9;;
40048;SDS011;54524;55.740;37.544;2023-02-28T06:01:18;6.5;;;3.8;;
40048;SDS011;54524;55.740;37.544;2023-02-28T06:02:19;5.8;;;4.1;;
40048;SDS011;54524;55.740;37.544;2023-02-28T06:03:20;5.9;;;4.1;;
40048;SDS011;54524;55.740;37.544;2023-02-28T06:04:20;5.9;;;4;;
40048;SDS011;54524;55.740;37.544;2023-02-28T06:05:21;5.7;;;4;;
40048;SDS011;54524;55.740;37.544;2023-02-28T06:06:22;5.6;;;3.9;;
40048;SDS011;54524;55.740;37.544;2023-02-28T06:07:23;5.5;;;4;;
40048;SDS011;54524;55.740;37.544;2023-02-28T06:08:24;6;;;3.5;;
40048;SDS011;54524;55.740;37.544;2023-02-28T06:09:25;6;;;3.5;;
40048;SDS011;54524;55.740;37.544;2023-02-28T06:11:02;4.5;;;3.5;;
40048;SDS011;54524;55.740;37.544;2023-02-28T06:12:04;4.5;;;3.5;;
40048;SDS011;54524;55.740;37.544;2023-02-28T06:13:05;4.5;;;3.5;;
40048;SDS011;54524;55.740;37.544;2023-02-28T06:14:06;5;;;3.8;;
40048;SDS011;54524;55.740;37.544;2023-02-28T06:15:07;5;;;3.8;;
40048;SDS011;54524;55.740;37.544;2023-02-28T06:16:11;5.1;;;3.9;;
40048;SDS011;54524;55.740;37.544;2023-02-28T06:17:13;6.3;;;3.9;;
40048;SDS011;54524;55.740;37.544;2023-02-28T06:18:13;6.3;;;3.9;;
40048;SDS011;54524;55.740;37.544;2023-02-28T06:19:14;6.5;;;3.9;;
40048;SDS011;54524;55.740;37.544;2023-02-28T06:21:02;5.4;;;3.7;;
40048;SDS011;54524;55.740;37.544;2023-02-28T06:22:03;5.3;;;3.7;;
40048;SDS011;54524;55.740;37.544;2023-02-28T06:23:03;5.6;;;3.8;;
40048;SDS011;54524;55.740;37.544;2023-02-28T06:24:04;5.6;;;3.8;;
40048;SDS011;54524;55.740;37.544;2023-02-28T06:25:05;4.9;;;3.8;;
40048;SDS011;54524;55.740;37.544;2023-02-28T06:26:06;5.8;;;3.8;;
40048;SDS011;54524;55.740;37.544;2023-02-28T06:27:07;5.5;;;3.4;;
40048;SDS011;54524;55.740;37.544;2023-02-28T06:28:08;5.5;;;3.3;;
40048;SDS011;54524;55.740;37.544;2023-02-28T06:29:08;5.5;;;3.3;;
40048;SDS011;54524;55.740;37.544;2023-02-28T06:31:07;6.30;;;1.20;;
40048;SDS011;54524;55.740;37.544;2023-02-28T06:32:08;4.6;;;3.6;;
40048;SDS011;54524;55.740;37.544;2023-02-28T06:33:08;5.6;;;3.7;;
40048;SDS011;54524;55.740;37.544;2023-02-28T06:34:09;5.4;;;3.6;;
40048;SDS011;54524;55.740;37.544;2023-02-28T06:35:11;5.4;;;3.6;;
40048;SDS011;54524;55.740;37.544;2023-02-28T06:36:14;5.4;;;3.6;;
40048;SDS011;54524;55.740;37.544;2023-02-28T06:37:16;5.2;;;3.4;;
40048;SDS011;54524;55.740;37.544;2023-02-28T06:38:17;5.1;;;3.4;;
40048;SDS011;54524;55.740;37.544;2023-02-28T06:39:18;5.1;;;3.4;;
40048;SDS011;54524;55.740;37.544;2023-02-28T06:41:02;6.30;;;1.20;;
40048;SDS011;54524;55.740;37.544;2023-02-28T06:42:03;5.1;;;3.9;;
40048;SDS011;54524;55.740;37.544;2023-02-28T06:43:03;4.9;;;3.4;;
40048;SDS011;54524;55.740;37.544;2023-02-28T06:44:04;5.5;;;3.4;;
40048;SDS011;54524;55.740;37.544;2023-02-28T06:45:06;5.5;;;3.4;;
40048;SDS011;54524;55.740;37.544;2023-02-28T06:46:10;7.4;;;3.6;;
40048;SDS011;54524;55.740;37.544;2023-02-28T06:47:12;7.3;;;3.5;;
40048;SDS011;54524;55.740;37.544;2023-02-28T06:48:12;7.3;;;3.5;;
40048;SDS011;54524;55.740;37.544;2023-02-28T06:49:13;7.1;;;3.5;;
40048;SDS011;54524;55.740;37.544;2023-02-28T06:51:03;6.6;;;3.7;;
40048;SDS011;54524;55.740;37.544;2023-02-28T06:52:04;5.5;;;3.6;;